Norris Rancho Marino Reserve, California Weather observations

Data are for 10 minute period ending at time listed.
 Day   Time   Solar   Ave.   Ave.  Ave.  Vector  Max.   Baro.   Total    
  of    of     Rad.   Air    Rel.  Wind   Wind   Wind  Press.  Precip.   
Year   Day            Temp.  Hum.  Speed  Dir.   Gust                    
2014   (PST)  Kw/m2    F      %     mph   deg.    mph    mb.     in.     
-------------------------------------------------------------------------
 113   11:50   0.96   55.9    73   14.5   293    18.2   1016.3    0.00 
 113   12:00   0.96   56.2    74   14.3   293    17.5   1016.3    0.00 
 113   12:10   0.93   56.0    75   13.9   293    18.2   1016.2    0.00 
 113   12:20   0.91   56.0    75   13.6   292    17.4   1016.1    0.00 
 113   12:30   0.89   55.8    76   12.5   293    17.3   1016.0    0.00 
 113   12:40   0.97   55.9    76   12.2   291    15.4   1016.0    0.00 
 113   12:50   0.95   56.0    77   12.3   295    17.5   1016.0    0.00 
 113   13:00   0.93   56.4    75   13.7   294    18.0   1015.9    0.00 
 113   13:10   0.94   56.4    74   13.0   291    17.5   1016.0    0.00 
 113   13:20   0.92   56.6    74   14.0   295    18.3   1015.9    0.00 
 113   13:30   0.91   56.4    75   15.2   295    20.8   1015.7    0.00 
 113   13:40   0.89   56.3    75   16.0   296    20.7   1015.7    0.00 
 113   13:50   0.88   56.8    75   14.2   296    18.4   1015.6    0.00 
 113   14:00   0.86   57.0    74   13.5   296    20.0   1015.5    0.00 
 113   14:10   0.80   57.5    73   14.2   301    20.2   1015.3    0.00 
 113   14:20   0.82   57.5    73   15.0   300    22.6   1015.2    0.00 
 113   14:30   0.80   56.8    74   17.1   296    23.5   1015.1    0.00 
 113   14:40   0.78   56.6    74   17.2   296    21.9   1015.0    0.00 
 113   14:50   0.75   57.1    74   16.4   297    21.9   1014.8    0.00 
 113   15:00   0.73   57.1    74   15.4   298    21.4   1014.6    0.00 
 113   15:10   0.70   57.4    73   14.9   301    20.5   1014.5    0.00 
 113   15:20   0.68   57.5    73   14.2   300    20.0   1014.3    0.00 
 113   15:30   0.65   57.5    73   14.3   307    20.2   1014.2    0.00 
 113   15:40   0.62   57.0    74   15.0   306    22.1   1014.1    0.00 
 113   15:50   0.57   57.3    74   15.0   306    20.8   1014.0    0.00 
 113   16:00   0.55   56.8    74   14.2   308    20.3   1014.0    0.00 
 113   16:10   0.52   56.6    74   15.9   311    22.3   1014.1    0.00 
 113   16:20   0.48   56.2    74   13.8   305    21.3   1014.1    0.00 
 113   16:30   0.42   56.2    75   12.9   306    19.6   1014.1    0.00 
 113   16:40   0.29   55.8    75   13.4   312    19.6   1014.0    0.00 
 113   16:50   0.35   55.7    76   15.0   301    20.8   1013.9    0.00 
 113   17:00   0.34   55.6    76   15.0   299    21.8   1013.8    0.00 
 113   17:10   0.30   55.6    76   14.9   303    21.0   1013.7    0.00 
 113   17:20   0.26   55.6    76   13.2   302    19.9   1013.7    0.00 
 113   17:30   0.23   55.3    76   12.8   302    18.8   1013.6    0.00 
 113   17:40   0.19   54.9    77   12.2   307    16.6   1013.7    0.00 
 113   17:50   0.16   54.5    77   12.7   312    18.2   1013.7    0.00 
 113   18:00   0.12   54.1    78   12.8   307    17.9   1013.6    0.00 
 113   18:10   0.10   53.7    79   12.8   310    17.2   1013.6    0.00 
 113   18:20   0.07   53.4    79   12.5   313    19.1   1013.6    0.00 
 113   18:30   0.04   53.0    80   11.4   310    16.3   1013.4    0.00 
 113   18:40   0.02   52.6    82   11.3   311    16.4   1013.4    0.00 
 113   18:50   0.01   52.3    82   10.7   312    15.9   1013.4    0.00 
 113   19:00   0.00   52.2    83   10.4   315    14.8   1013.3    0.00 
 113   19:10   0.00   52.1    83    9.8   313    13.1   1013.2    0.00 
 113   19:20   0.00   52.1    84    9.7   318    14.9   1013.2    0.00 
 113   19:30   0.00   52.2    83    9.5   322    14.7   1013.2    0.00 
 113   19:40   0.00   52.2    82    8.7   324    15.6   1013.3    0.00 
 113   19:50   0.00   52.1    82    6.0   329    10.8   1013.3    0.00 
 113   20:00   0.00   51.6    81    3.4   336     6.6   1013.3    0.00 
 113   20:10   0.00   51.0    82    3.0   351     4.5   1013.3    0.00 
 113   20:20   0.00   50.1    83    4.0   353     7.4   1013.3    0.00 
 113   20:30   0.00   50.2    83    2.3   354     5.3   1013.4    0.00 
 113   20:40   0.00   49.7    84    1.0    63     2.9   1013.5    0.00 
 113   20:50   0.00   50.1    84    1.5    14     3.0   1013.5    0.00 
 113   21:00   0.00   50.3    83    1.2     5     2.6   1013.5    0.00 
 113   21:10   0.00   49.9    82    1.3    40     3.7   1013.6    0.00 
 113   21:20   0.00   50.1    82    1.2    29     2.5   1013.7    0.00 
 113   21:30   0.00   50.1    81    1.3    68     2.8   1013.7    0.00 
 113   21:40   0.00   50.2    80    1.4    84     2.7   1013.5    0.00 
 113   21:50   0.00   50.2    79    2.0    93     3.7   1013.5    0.00 
 113   22:00   0.00   50.3    79    1.4    65     3.1   1013.6    0.00 
 113   22:10   0.00   50.2    79    1.8    67     2.9   1013.5    0.00 
 113   22:20   0.00   50.0    80    2.3    75     4.2   1013.6    0.00 
 113   22:30   0.00   49.9    81    2.4    68     3.9   1013.6    0.00 
 113   22:40   0.00   50.2    81    1.9    94     3.4   1013.7    0.00 
 113   22:50   0.00   49.8    81    1.3    67     3.9   1013.7    0.00 
 113   23:00   0.00   49.8    82    1.6    41     2.9   1013.9    0.00 
 113   23:10   0.00   49.5    82    2.4    42     3.9   1013.9    0.00 
 113   23:20   0.00   49.1    83    2.4    25     4.7   1013.8    0.00 
 113   23:30   0.00   49.1    84    2.3    34     3.9   1013.7    0.00 
 113   23:40   0.00   49.8    83    1.5    39     3.5   1013.6    0.00 
 113   23:50   0.00   50.1    82    2.0    44     3.1   1013.5    0.00 
 114    0:00   0.00   50.0    80    1.5   355     3.1   1013.5    0.00 
 114    0:10   0.00   50.5    80    1.2    42     3.1   1013.6    0.00 
 114    0:20   0.00   50.8    78    2.5   103     3.5   1013.5    0.00 
 114    0:30   0.00   50.5    78    2.7   103     3.6   1013.4    0.00 
 114    0:40   0.00   50.3    78    2.5   130     4.2   1013.4    0.00 
 114    0:50   0.00   50.3    80    1.9   105     3.1   1013.5    0.00 
 114    1:00   0.00   50.1    81    2.3    68     3.4   1013.5    0.00 
 114    1:10   0.00   49.3    81    2.4    36     3.7   1013.4    0.00 
 114    1:20   0.00   49.0    84    2.5    12     3.8   1013.3    0.00 
 114    1:30   0.00   48.7    85    3.0    34     4.9   1013.1    0.00 
 114    1:40   0.00   49.5    84    4.3    37     6.8   1013.0    0.00 
 114    1:50   0.00   50.8    79    4.1   343     6.1   1013.0    0.00 
 114    2:00   0.00   50.5    77    2.9   344     5.0   1013.0    0.00 
 114    2:10   0.00   50.6    75    2.2   329     4.5   1012.8    0.00 
 114    2:20   0.00   50.4    78    2.2   132     4.2   1012.8    0.00 
 114    2:30   0.00   50.4    78    3.7   114     7.4   1012.8    0.00 
 114    2:40   0.00   50.0    84    4.5   116     7.2   1012.9    0.00 
 114    2:50   0.00   49.7    85    2.3   118     4.3   1013.1    0.00 
 114    3:00   0.00   49.3    85    3.2    59     4.7   1013.1    0.00 
 114    3:10   0.00   48.7    84    3.1    44     4.2   1013.0    0.00 
 114    3:20   0.00   48.7    85    2.1    15     3.4   1013.0    0.00 
 114    3:30   0.00   49.0    85    1.8    37     3.3   1012.9    0.00 
 114    3:40   0.00   49.3    85    1.0   337     2.0   1013.1    0.00 
 114    3:50   0.00   49.8    84    1.7   335     2.8   1013.2    0.00 
 114    4:00   0.00   49.4    84    1.5   350     2.6   1013.1    0.00 
 114    4:10   0.00   48.7    85    1.9    36     3.7   1013.0    0.00 
 114    4:20   0.00   48.5    85    3.4    46     5.1   1013.0    0.00 
 114    4:30   0.00   49.0    84    4.9    61     6.8   1012.9    0.00 
 114    4:40   0.00   49.1    82    3.1    28     5.1   1012.9    0.00 
 114    4:50   0.00   49.9    77    1.6    27     3.6   1013.1    0.00 
 114    5:00   0.00   49.2    81    4.2   309     6.9   1013.4    0.00 
 114    5:10   0.00   50.1    85    3.6   358     6.9   1013.5    0.00 
 114    5:20   0.00   49.4    85    4.6    36     6.9   1013.5    0.00 
 114    5:30   0.01   49.3    85    4.2    43     6.8   1013.4    0.00 
 114    5:40   0.01   49.4    84    2.2    45     4.4   1013.5    0.00 
 114    5:50   0.01   49.6    83    3.3    51     5.0   1013.5    0.00 
 114    6:00   0.03   50.1    79    2.1   107     4.1   1013.5    0.00 
 114    6:10   0.03   50.5    81    2.4   127     4.2   1013.7    0.00 
 114    6:20   0.03   50.8    84    1.5   150     3.5   1014.0    0.00 
 114    6:30   0.09   50.8    86    2.4    96     3.4   1014.2    0.00 
 114    6:40   0.17   51.5    85    3.2   103     4.4   1014.4    0.00 
 114    6:50   0.20   52.1    84    5.0    98     5.9   1014.6    0.00 
 114    7:00   0.24   53.3    84    3.6   115     5.4   1014.9    0.00 
 114    7:10   0.27   54.3    83    1.8   191     3.4   1015.4    0.00 
 114    7:20   0.30   54.3    84    1.2   185     2.2   1015.7    0.00 
 114    7:30   0.34   54.8    84    1.1   167     2.0   1015.7    0.00 
 114    7:40   0.37   55.1    83    2.4   263     6.5   1015.9    0.00 
 114    7:50   0.41   53.8    85    4.8   284     7.2   1016.0    0.00 
 114    8:00   0.44   53.8    87    8.6   287    10.8   1016.1    0.00 
 114    8:10   0.47   53.5    89    8.5   288    11.9   1016.0    0.00 
 114    8:20   0.50   53.2    91    8.9   292    12.3   1016.1    0.00 
 114    8:30   0.52   53.2    91   10.1   292    12.1   1016.1    0.00 
 114    8:40   0.57   53.7    90    8.8   293    12.7   1016.2    0.00 
 114    8:50   0.60   54.4    88    7.8   287     9.7   1016.1    0.00 
 114    9:00   0.63   54.4    87    7.8   283     9.8   1016.0    0.00 
 114    9:10   0.66   54.0    88    8.1   286    10.4   1015.9    0.00 
 114    9:20   0.69   54.3    87    9.3   286    12.1   1016.0    0.00 
 114    9:30   0.72   54.7    87    7.7   283    10.0   1015.9    0.00 
 114    9:40   0.74   54.7    87    8.8   286    11.3   1015.9    0.00 
 114    9:50   0.76   54.7    86    8.4   283    10.4   1015.8    0.00 
 114   10:00   0.79   54.3    87    6.9   275     8.4   1015.7    0.00 
 114   10:10   0.81   54.8    87    6.8   272     9.0   1015.7    0.00 
 114   10:20   0.83   55.1    87    8.9   287    13.2   1015.7    0.00 
 114   10:30   0.84   54.8    88    9.5   290    12.3   1015.5    0.00 
 114   10:40   0.86   54.9    87    9.7   288    11.8   1015.4    0.00 
 114   10:50   0.88   54.8    87    9.2   287    11.3   1015.4    0.00 
 114   11:00   0.89   55.0    87    9.7   288    13.5   1015.3    0.00 
 114   11:10   0.90   55.3    86   10.6   288    13.4   1015.1    0.00 
 114   11:20   0.91   56.2    84   11.5   299    16.1   1015.2    0.00 
 114   11:30   0.91   56.7    82   12.5   296    18.4   1015.0    0.00 
 114   11:40   0.93   56.9    81   14.5   296    18.8   1014.9    0.00 

Return to Norris Rancho Marino Reserve graphs page.


Western Regional Climate Center,wrcc@dri.edu